x

Tanner Bank - 121nm West Of San Diego, Ca (46047) Wave Buoy

6:50 - Sat 1st Aug 2015 All times are PDT. -7 hours from GMT.

  • Sig Wave height 4.9ft
  • Swell Direction
  • Peak Period 6s
  • Average Period 5s
  • Wind
    20mph, 25mph gusts
  • Sea Temp 68°f
  • Aire Temp 66°f
  • Sea Pressure 1013.2mb
  • Tanner Bank - 121nm West Of San Diego, Ca
  • Tanner Bank - 121nm West Of San Diego, Ca

More Historic Weather Station data

Upgrade to MSW Pro to gain access to the past 30 days of data for over 8000 Wavebouys and Weather Stations around the globe.

Join Pro

Comparision Forecast

View Surf forecast
   
sáb 08/01 6:50 5ft 6s 5s 20 25 mph 1013.2mb 68f 66f
5:50 4.5ft 5s 5s 20 22 mph 1013.3mb 68f 66f
4:50 4.5ft 6s 5s 18 22 mph 1013.8mb 68f 66f
3:50 4.5ft 5s 5s 16 20 mph 1014.3mb 68f 66f
2:50 4.5ft 6s 5s 16 20 mph 1014.6mb 68f 66f
1:50 4.5ft 6s 5s 16 18 mph 1015.1mb 68f 66f
12:50 4ft 13s 5s 16 18 mph 1015.6mb 68f 67f
11:50 4ft 14s 5s 16 18 mph 1015.8mb 68f 67f
10:50 4ft 14s 6s 13 18 mph 1015.9mb 68f 66f
9:50 3.5ft 15s 6s 13 16 mph 1015.9mb 68f 66f
8:50 3.5ft 13s 5s 13 16 mph 1016.3mb 68f 66f
7:50  -   -   -  13 16 mph 1015.9mb 68f 66f
6:50 3.5ft 15s 6s 11 13 mph 1015.5mb 68f 66f
5:50 3.5ft 13s 6s 13 16 mph 1015.1mb 68f 66f
4:50 3.5ft 14s 6s 13 18 mph 1015.1mb 68f 66f
3:50 3.5ft 14s 6s 13 18 mph 1015.1mb 68f 66f
2:50 4ft 16s 6s 13 18 mph 1015.1mb 68f 66f
1:50 3.5ft 14s 6s 11 16 mph 1015.4mb 68f 67f
12:50 4ft 14s 7s 11 13 mph 1015.6mb 68f 67f
vie 07/31 11:50 4ft 15s 7s 11 16 mph 1015.6mb 68f 67f
10:50 3.5ft 10s 6s 16 18 mph 1015.3mb 68f 67f
9:50 3.5ft 13s 6s 13 16 mph 1015.4mb 68f 67f
8:50 4ft 14s 7s 16 18 mph 1015.1mb 69f 67f
7:50 4ft 14s 6s 13 18 mph 1014.8mb 69f 67f
6:50 3.5ft 16s 6s 16 18 mph 1014.3mb 69f 67f
5:50 3.5ft 16s 6s 13 16 mph 1014.8mb 69f 68f
4:50 3.5ft 14s 7s 13 16 mph 1015.5mb 69f 68f
3:50 4ft 14s 7s 11 13 mph 1015.8mb 69f 68f
2:50 4.5ft 15s 7s 9 11 mph 1016.7mb 69f 67f
1:50 3.5ft 16s 7s 9 11 mph 1017.1mb 69f 67f
12:50 3.5ft 15s 7s 7 9 mph 1017.5mb 69f 67f
11:50 4ft 13s 7s 9 11 mph 1017.5mb 68f 67f
10:50 3.5ft 16s 7s 9 11 mph 1017.6mb 68f 67f
9:50 3.5ft 14s 7s 9 11 mph 1017.5mb 68f 67f
8:50 4ft 14s 7s 9 11 mph 1017.5mb 68f 66f
7:50 4ft 14s 7s 9 11 mph 1017.6mb 68f 66f
6:50 3.5ft 14s 7s 13 16 mph 1016.8mb 68f 66f
5:50 4.5ft 15s 7s 11 13 mph 1016.5mb 68f 67f
4:50 4.5ft 15s 7s 11 13 mph 1016.3mb 68f 66f
3:50 4.5ft 15s 7s 11 16 mph 1016.4mb 68f 66f
2:50 4.5ft 15s 7s 11 13 mph 1016.5mb 68f 66f
1:50 4.5ft 15s 7s 11 13 mph 1016.9mb 68f 66f
12:50 4.5ft 15s 7s 11 16 mph 1017mb 68f 66f
jue 07/30 11:50 4.5ft 15s 7s 11 13 mph 1017.1mb 69f 66f
10:50 4.5ft 15s 7s 11 13 mph 1017mb 69f 66f
9:50 4.5ft 14s 7s 9 13 mph 1016.8mb 69f 67f
8:50 4.5ft 15s 7s 11 16 mph 1016.1mb 69f 66f
7:50 4.5ft 15s 7s 13 16 mph 1015.8mb 69f 66f
6:50 4.5ft 15s 7s 13 18 mph 1015.8mb 69f 66f
5:50 4.5ft 15s 7s 13 18 mph 1015.7mb 69f 66f
4:50 4.5ft 15s 7s 13 16 mph 1015.7mb 69f 67f
3:50 4.5ft 15s 7s 13 16 mph 1015.7mb 69f 67f
2:50 5ft 14s 7s 11 13 mph 1016.4mb 69f 67f
1:50 5ft 15s 7s 11 13 mph 1017.1mb 69f 66f
12:50 4.5ft 15s 8s 11 13 mph 1017.2mb 69f 66f
11:50 5ft 15s 8s 11
mph
1017.4mb 69f 66f
10:50 4.5ft 17s 8s 9 11 mph 1017.1mb 69f 66f
9:50 5ft 15s 8s 11 13 mph 1016.9mb 69f 66f
8:50 4.5ft 10s 8s 11 13 mph 1016.6mb 69f 66f
7:50 4.5ft 10s 8s 9 13 mph 1016.3mb 69f 66f
6:50 4.5ft 15s 8s 9 13 mph 1015.9mb 69f 66f
5:50 4ft 15s 7s 9 11 mph 1015.8mb 69f 66f
4:50 4.5ft 14s 8s 9 11 mph 1015.3mb 68f 65f
3:50 4.5ft 15s 8s 9 13 mph 1015mb 68f 65f
2:50 4.5ft 15s 8s 11 13 mph 1015mb 68f 65f
1:50 5ft 15s 8s 9 11 mph 1015.4mb 68f 65f
12:50 5ft 15s 8s 7 9 mph 1015.8mb 68f 65f
mié 07/29 11:50 4.5ft 15s 8s 9 11 mph 1015.4mb 69f 65f
10:50 4.5ft 15s 8s 7 9 mph 1015.7mb 69f 65f
9:50 4.5ft 15s 8s 7 11 mph 1015.2mb 69f 65f
8:50 4.5ft 15s 8s 9 13 mph 1014.5mb 69f 65f
7:50 4.5ft 15s 8s 11 16 mph 1014.2mb 69f 65f
6:50 4.5ft 15s 7s 11 13 mph 1014mb 69f 65f
5:50 4.5ft 16s 8s 13 16 mph 1013.6mb 69f 65f
4:50 4.5ft 15s 8s 11 13 mph 1013.7mb 69f 65f
3:50 5ft 15s 8s 13 16 mph 1014mb 69f 65f
2:50 5ft 16s 7s 9 13 mph 1014.7mb 69f 65f
1:50 5.5ft 9s 8s 9 11 mph 1015.1mb 69f 65f
12:50 5.5ft 16s 8s 9 11 mph 1015.4mb 69f 65f
11:50 5.5ft 9s 7s 7 9 mph 1015.4mb 68f 65f
10:50 5.5ft 9s 8s 7 9 mph 1015.2mb 68f 65f
9:50 5.5ft 15s 8s 9 11 mph 1014.7mb 68f 64f
8:50 5ft 16s 7s 7 9 mph 1014.5mb 68f 64f
7:50 5ft 10s 7s 9 13 mph 1013.7mb 68f 64f
6:50 5ft 16s 8s 11 13 mph 1013.5mb 68f 64f
5:50 5ft 16s 7s 11 16 mph 1013.3mb 68f 64f
4:50 6ft 10s 8s 11 16 mph 1013mb 68f 64f
3:50 5.5ft 16s 8s 9 13 mph 1012.8mb 68f 64f
2:50 6ft 16s 7s 9 13 mph 1012.9mb 68f 64f